createdAt,value
2022-08-20T00:02:14.703Z,14.85
2022-08-20T00:04:42.079Z,13.52
2022-08-20T00:07:09.385Z,12.43
2022-08-20T00:09:37.045Z,12.65
2022-08-20T00:12:07.037Z,15.30
2022-08-20T00:14:36.179Z,13.27
2022-08-20T00:17:05.226Z,14.35
2022-08-20T00:19:32.508Z,12.27
2022-08-20T00:21:59.795Z,14.90
2022-08-20T00:24:27.131Z,13.05
2022-08-20T00:26:54.398Z,15.05
2022-08-20T00:29:22.599Z,15.90
2022-08-20T00:31:51.100Z,17.70
2022-08-20T00:34:18.817Z,15.75
2022-08-20T00:36:46.990Z,15.52
2022-08-20T00:39:14.434Z,15.25
2022-08-20T00:41:41.898Z,17.80
2022-08-20T00:44:22.028Z,17.05
2022-08-20T00:46:51.408Z,16.65
2022-08-20T00:49:28.189Z,24.92
2022-08-20T00:52:18.920Z,20.40
2022-08-20T00:54:59.197Z,22.80
2022-08-20T00:57:44.515Z,26.38
2022-08-20T01:00:35.711Z,21.83
2022-08-20T01:03:03.913Z,26.83
2022-08-20T01:05:32.223Z,22.38
2022-08-20T01:07:59.571Z,20.17
2022-08-20T01:10:35.040Z,19.40
2022-08-20T01:13:15.947Z,22.00
2022-08-20T01:15:48.273Z,18.02
2022-08-20T01:18:25.329Z,18.15
2022-08-20T01:21:04.067Z,20.33
2022-08-20T01:23:53.876Z,22.30
2022-08-20T01:26:37.459Z,21.15
2022-08-20T01:29:13.471Z,20.10
2022-08-20T01:31:42.635Z,18.90
2022-08-20T01:34:20.945Z,14.80
2022-08-20T01:36:53.377Z,19.00
2022-08-20T01:39:34.765Z,20.15
2022-08-20T01:42:36.213Z,18.70
2022-08-20T01:45:07.622Z,19.08
2022-08-20T01:47:38.508Z,20.15
2022-08-20T01:50:24.705Z,19.02
2022-08-20T01:53:30.095Z,20.25
2022-08-20T01:55:57.490Z,21.52
2022-08-20T01:58:24.961Z,21.00
2022-08-20T02:00:52.279Z,22.75
2022-08-20T02:03:19.549Z,19.88
2022-08-20T02:05:47.183Z,18.88
2022-08-20T02:08:15.009Z,18.73
2022-08-20T02:10:42.568Z,20.33
2022-08-20T02:13:10.201Z,24.25
2022-08-20T02:15:39.946Z,21.30
2022-08-20T02:18:15.656Z,17.98
2022-08-20T02:20:45.966Z,22.95
2022-08-20T02:23:15.571Z,19.90
2022-08-20T02:25:47.496Z,23.05
2022-08-20T02:28:20.676Z,21.38
2022-08-20T02:30:53.381Z,20.88
2022-08-20T02:33:24.419Z,23.13
2022-08-20T02:35:56.379Z,20.02
2022-08-20T02:38:24.320Z,22.42
2022-08-20T02:40:52.231Z,23.30
2022-08-20T02:43:20.233Z,24.55
2022-08-20T02:45:47.640Z,20.77
2022-08-20T02:48:20.974Z,22.58
2022-08-20T02:51:09.079Z,25.77
2022-08-20T02:53:41.195Z,25.70
2022-08-20T02:56:11.923Z,22.67
2022-08-20T02:58:41.603Z,23.58
2022-08-20T03:01:16.765Z,23.08
2022-08-20T03:03:45.475Z,26.58
2022-08-20T03:06:14.830Z,26.27
2022-08-20T03:08:43.953Z,22.80
2022-08-20T03:11:12.049Z,26.58
2022-08-20T03:13:39.448Z,22.65
2022-08-20T03:16:08.322Z,20.38
2022-08-20T03:18:44.957Z,22.70
2022-08-20T03:21:14.796Z,21.70
2022-08-20T03:23:43.884Z,19.50
2022-08-20T03:26:13.814Z,25.52
2022-08-20T03:28:42.120Z,23.45
2022-08-20T03:31:10.197Z,23.73
2022-08-20T03:33:52.681Z,26.45
2022-08-20T03:36:28.166Z,26.75
2022-08-20T03:39:05.539Z,23.98
2022-08-20T03:41:32.863Z,27.48
2022-08-20T03:44:00.134Z,33.45
2022-08-20T03:46:27.468Z,25.27
2022-08-20T03:48:59.815Z,31.13
2022-08-20T03:51:30.769Z,28.63
2022-08-20T03:53:59.006Z,31.30
2022-08-20T03:56:27.265Z,29.90
2022-08-20T03:58:54.847Z,27.92
2022-08-20T04:01:44.261Z,30.05
2022-08-20T04:04:12.242Z,34.33
2022-08-20T04:06:42.516Z,29.52
2022-08-20T04:09:12.347Z,35.20
2022-08-20T04:11:41.789Z,27.98
2022-08-20T04:14:11.829Z,32.63
2022-08-20T04:16:46.303Z,29.52
2022-08-20T04:19:16.864Z,42.75
2022-08-20T04:21:44.388Z,31.95
2022-08-20T04:24:21.993Z,30.15
2022-08-20T04:27:02.488Z,37.90
2022-08-20T04:29:32.204Z,33.13
2022-08-20T04:32:02.761Z,35.97
2022-08-20T04:34:34.795Z,36.85
2022-08-20T04:37:02.154Z,38.33
2022-08-20T04:39:29.444Z,48.55
2022-08-20T04:41:56.739Z,31.98
2022-08-20T04:44:24.031Z,41.42
2022-08-20T04:46:51.334Z,41.47
2022-08-20T04:49:20.558Z,40.40
2022-08-20T04:51:47.793Z,47.40
2022-08-20T04:54:15.055Z,38.60
2022-08-20T04:56:44.876Z,44.00
2022-08-20T04:59:12.137Z,49.53
2022-08-20T05:01:39.461Z,49.17
2022-08-20T05:04:06.726Z,51.13
2022-08-20T05:06:34.139Z,53.75
2022-08-20T05:09:01.517Z,53.15
2022-08-20T05:11:33.946Z,53.63
2022-08-20T05:14:11.355Z,52.60
2022-08-20T05:16:40.910Z,57.80
2022-08-20T05:19:12.371Z,56.10
2022-08-20T05:21:40.417Z,46.75
2022-08-20T05:24:08.363Z,51.30
2022-08-20T05:26:36.501Z,50.45
2022-08-20T05:29:05.621Z,50.05
2022-08-20T05:31:34.742Z,49.38
2022-08-20T05:34:11.874Z,51.42
2022-08-20T05:36:52.170Z,49.90
2022-08-20T05:39:23.001Z,47.08
2022-08-20T05:41:51.327Z,43.65
2022-08-20T05:44:19.957Z,52.03
2022-08-20T05:46:48.555Z,42.35
2022-08-20T05:49:21.538Z,45.13
2022-08-20T05:51:51.374Z,56.75
2022-08-20T05:54:18.814Z,67.65
2022-08-20T05:56:46.221Z,46.40
2022-08-20T05:59:14.144Z,51.08
2022-08-20T06:01:43.128Z,57.53
2022-08-20T06:04:32.028Z,50.28
2022-08-20T06:07:06.801Z,48.05
2022-08-20T06:09:36.249Z,58.88
2022-08-20T06:12:08.378Z,48.67
2022-08-20T06:14:36.450Z,46.63
2022-08-20T06:17:15.501Z,49.35
2022-08-20T06:19:46.116Z,47.38
2022-08-20T06:22:18.102Z,50.53
2022-08-20T06:24:47.830Z,47.50
2022-08-20T06:27:17.292Z,51.35
2022-08-20T06:29:45.062Z,49.90
2022-08-20T06:32:12.558Z,46.83
2022-08-20T06:34:50.481Z,46.15
2022-08-20T06:37:30.908Z,49.40
2022-08-20T06:40:19.675Z,38.47
2022-08-20T06:42:48.880Z,36.80
2022-08-20T06:45:24.477Z,46.15
2022-08-20T06:47:55.841Z,41.95
2022-08-20T06:50:43.164Z,41.97
2022-08-20T06:53:20.796Z,38.28
2022-08-20T06:55:54.707Z,40.85
2022-08-20T06:58:37.832Z,35.22
2022-08-20T07:01:12.321Z,31.23
2022-08-20T07:03:54.791Z,32.97
2022-08-20T07:06:26.143Z,42.13
2022-08-20T07:08:55.774Z,33.58
2022-08-20T07:11:27.794Z,32.92
2022-08-20T07:13:58.462Z,29.80
2022-08-20T07:16:27.173Z,30.20
2022-08-20T07:18:54.908Z,29.40
2022-08-20T07:21:22.216Z,31.98
2022-08-20T07:23:49.605Z,27.85
2022-08-20T07:26:18.291Z,28.42
2022-08-20T07:28:46.679Z,29.45
2022-08-20T07:31:34.977Z,31.48
2022-08-20T07:34:03.997Z,30.85
2022-08-20T07:36:33.219Z,28.55
2022-08-20T07:39:05.682Z,26.10
2022-08-20T07:41:34.226Z,24.20
2022-08-20T07:44:02.412Z,27.92
2022-08-20T07:46:31.610Z,24.08
2022-08-20T07:48:59.658Z,22.30
2022-08-20T07:51:27.625Z,23.90
2022-08-20T07:53:58.402Z,27.52
2022-08-20T07:56:26.642Z,25.27
2022-08-20T07:59:01.494Z,24.27
2022-08-20T08:01:32.326Z,24.13
2022-08-20T08:04:00.728Z,26.58
2022-08-20T08:06:31.291Z,24.98
2022-08-20T08:09:14.232Z,22.13
2022-08-20T08:11:50.356Z,21.65
2022-08-20T08:14:26.659Z,20.48
2022-08-20T08:17:02.097Z,20.40
2022-08-20T08:19:38.805Z,21.50
2022-08-20T08:22:12.663Z,19.15
2022-08-20T08:24:43.298Z,18.55
2022-08-20T08:27:24.374Z,22.05
2022-08-20T08:29:51.665Z,19.13
2022-08-20T08:32:19.480Z,21.30
2022-08-20T08:34:48.127Z,19.58
2022-08-20T08:37:15.431Z,21.25
2022-08-20T08:39:42.844Z,18.02
2022-08-20T08:42:48.087Z,18.42
2022-08-20T08:45:17.298Z,17.38
2022-08-20T08:47:45.930Z,17.20
2022-08-20T08:50:52.947Z,16.05
2022-08-20T08:53:33.478Z,16.45
2022-08-20T08:56:02.094Z,16.85
2022-08-20T08:58:29.758Z,15.07
2022-08-20T09:00:57.362Z,14.45
2022-08-20T09:03:36.499Z,13.80
2022-08-20T09:06:04.448Z,14.85
2022-08-20T09:09:06.589Z,14.13
2022-08-20T09:11:50.460Z,14.25
2022-08-20T09:14:21.714Z,12.80
2022-08-20T09:16:52.168Z,14.50
2022-08-20T09:19:21.680Z,16.02
2022-08-20T09:21:49.508Z,12.25
2022-08-20T09:24:17.083Z,11.95
2022-08-20T09:26:44.771Z,13.20
2022-08-20T09:29:12.143Z,15.23
2022-08-20T09:31:40.313Z,12.32
2022-08-20T09:34:07.718Z,17.65
2022-08-20T09:36:35.764Z,12.05
2022-08-20T09:39:03.431Z,11.60
2022-08-20T09:41:33.729Z,10.73
2022-08-20T09:44:02.484Z,14.38
2022-08-20T09:46:29.809Z,11.85
2022-08-20T09:48:57.131Z,10.30
2022-08-20T09:51:24.523Z,10.32
2022-08-20T09:53:52.111Z,13.13
2022-08-20T09:56:19.498Z,10.90
2022-08-20T09:59:02.363Z,10.73
2022-08-20T10:01:30.333Z,9.77
2022-08-20T10:03:57.664Z,13.68
2022-08-20T10:06:25.036Z,7.80
2022-08-20T10:08:52.565Z,9.30
2022-08-20T10:11:19.898Z,12.13
2022-08-20T10:13:48.006Z,10.50
2022-08-20T10:16:15.308Z,6.85
2022-08-20T10:18:42.604Z,8.55
2022-08-20T10:21:12.432Z,9.90
2022-08-20T10:23:40.553Z,12.63
2022-08-20T10:26:10.901Z,9.77
2022-08-20T10:28:39.082Z,9.20
2022-08-20T10:31:10.029Z,12.45
2022-08-20T10:33:40.337Z,9.52
2022-08-20T10:36:18.052Z,12.98
2022-08-20T10:38:45.563Z,6.93
2022-08-20T10:41:12.953Z,5.47
2022-08-20T10:43:40.451Z,10.40
2022-08-20T10:46:07.796Z,8.95
2022-08-20T10:48:35.746Z,6.38
2022-08-20T10:51:03.307Z,9.63
2022-08-20T10:53:31.147Z,6.57
2022-08-20T10:55:59.051Z,11.00
2022-08-20T10:58:37.443Z,8.45
2022-08-20T11:01:07.585Z,9.57
2022-08-20T11:03:36.505Z,6.07
2022-08-20T11:06:04.821Z,5.40
2022-08-20T11:08:33.682Z,8.75
2022-08-20T11:11:02.268Z,7.28
2022-08-20T11:13:29.590Z,7.55
2022-08-20T11:15:56.967Z,9.60
2022-08-20T11:18:24.324Z,10.55
2022-08-20T11:20:52.325Z,7.32
2022-08-20T11:23:19.770Z,6.60
2022-08-20T11:25:49.848Z,9.32
2022-08-20T11:28:31.679Z,8.52
2022-08-20T11:31:01.559Z,6.38
2022-08-20T11:33:29.612Z,12.43
2022-08-20T11:35:57.138Z,7.93
2022-08-20T11:38:24.889Z,9.02
2022-08-20T11:40:52.169Z,15.07
2022-08-20T11:43:19.531Z,6.32
2022-08-20T11:45:54.485Z,6.78
2022-08-20T11:48:22.395Z,11.85
2022-08-20T11:50:50.683Z,8.90
2022-08-20T11:53:18.075Z,8.43
2022-08-20T11:55:46.806Z,10.02
2022-08-20T11:58:15.216Z,11.15
2022-08-20T12:00:42.767Z,7.15
2022-08-20T12:03:11.624Z,9.20
2022-08-20T12:05:44.811Z,7.43
2022-08-20T12:08:26.931Z,10.25
2022-08-20T12:11:05.227Z,6.85
2022-08-20T12:13:48.307Z,6.13
2022-08-20T12:16:19.075Z,8.75
2022-08-20T12:18:48.350Z,9.63
2022-08-20T12:21:16.440Z,8.30
2022-08-20T12:23:44.621Z,8.40
2022-08-20T12:26:11.945Z,7.13
2022-08-20T12:28:39.229Z,6.57
2022-08-20T12:31:08.162Z,7.72
2022-08-20T12:33:35.507Z,10.15
2022-08-20T12:36:06.282Z,8.68
2022-08-20T12:38:36.065Z,7.78
2022-08-20T12:41:03.476Z,7.53
2022-08-20T12:43:30.765Z,10.25
2022-08-20T12:45:58.172Z,6.70
2022-08-20T12:48:28.342Z,8.80
2022-08-20T12:50:55.713Z,8.07
2022-08-20T12:53:22.989Z,10.50
2022-08-20T12:55:50.287Z,6.93
2022-08-20T12:58:17.614Z,8.50
2022-08-20T13:00:50.620Z,10.70
2022-08-20T13:03:20.029Z,7.72
2022-08-20T13:05:50.101Z,8.10
2022-08-20T13:08:19.165Z,9.80
2022-08-20T13:10:47.139Z,7.80
2022-08-20T13:13:20.944Z,6.65
2022-08-20T13:15:50.902Z,8.27
2022-08-20T13:18:19.536Z,7.05
2022-08-20T13:20:48.261Z,8.52
2022-08-20T13:23:16.062Z,7.78
2022-08-20T13:25:43.366Z,6.63
2022-08-20T13:28:10.665Z,5.10
2022-08-20T13:30:39.092Z,6.47
2022-08-20T13:33:09.642Z,7.05
2022-08-20T13:35:38.059Z,6.28
2022-08-20T13:38:05.542Z,6.00
2022-08-20T13:40:33.088Z,9.45
2022-08-20T13:43:05.954Z,7.18
2022-08-20T13:45:35.051Z,10.27
2022-08-20T13:48:02.731Z,6.82
2022-08-20T13:50:31.885Z,6.85
2022-08-20T13:52:59.305Z,7.38
2022-08-20T13:55:29.377Z,8.82
2022-08-20T13:57:58.378Z,8.68
2022-08-20T14:00:34.590Z,7.30
2022-08-20T14:03:05.852Z,11.23
2022-08-20T14:05:36.714Z,9.38
2022-08-20T14:08:21.400Z,9.07
2022-08-20T14:10:51.503Z,8.55
2022-08-20T14:13:24.400Z,11.95
2022-08-20T14:15:52.359Z,11.02
2022-08-20T14:18:19.938Z,9.82
2022-08-20T14:20:47.672Z,6.88
2022-08-20T14:23:15.944Z,6.53
2022-08-20T14:25:49.402Z,6.18
2022-08-20T14:28:22.985Z,8.68
2022-08-20T14:30:52.611Z,7.63
2022-08-20T14:33:23.761Z,7.50
2022-08-20T14:35:53.007Z,8.63
2022-08-20T14:38:22.832Z,9.18
2022-08-20T14:40:50.612Z,7.35
2022-08-20T14:43:18.480Z,9.02
2022-08-20T14:45:45.999Z,7.55
2022-08-20T14:48:14.917Z,9.18
2022-08-20T14:50:42.383Z,8.70
2022-08-20T14:53:09.712Z,12.85
2022-08-20T14:55:38.484Z,6.78
2022-08-20T14:58:15.048Z,10.85
2022-08-20T15:00:43.645Z,7.40
2022-08-20T15:03:13.389Z,9.65
2022-08-20T15:05:41.051Z,12.02
2022-08-20T15:08:10.732Z,12.80
2022-08-20T15:10:39.176Z,11.57
2022-08-20T15:13:07.654Z,7.80
2022-08-20T15:15:35.417Z,9.55
2022-08-20T15:18:03.487Z,8.32
2022-08-20T15:20:34.491Z,6.00
2022-08-20T15:23:02.560Z,7.95
2022-08-20T15:25:36.753Z,9.15
2022-08-20T15:28:09.770Z,9.43
2022-08-20T15:30:43.559Z,9.75
2022-08-20T15:33:11.526Z,4.70
2022-08-20T15:35:39.310Z,13.82
2022-08-20T15:38:07.283Z,6.63
2022-08-20T15:40:34.761Z,7.03
2022-08-20T15:43:04.692Z,8.30
2022-08-20T15:45:34.155Z,9.43
2022-08-20T15:48:17.308Z,8.32
2022-08-20T15:51:46.557Z,10.50
2022-08-20T15:54:25.181Z,7.78
2022-08-20T15:57:17.378Z,7.90
2022-08-20T16:00:40.971Z,8.55
2022-08-20T16:03:34.898Z,7.55
2022-08-20T16:06:22.988Z,8.27
2022-08-20T16:09:34.087Z,7.15
2022-08-20T16:12:20.034Z,7.13
2022-08-20T16:14:56.889Z,8.40
2022-08-20T16:17:52.593Z,7.50
2022-08-20T16:20:47.995Z,6.40
2022-08-20T16:23:21.505Z,10.25
2022-08-20T16:26:16.064Z,7.10
2022-08-20T16:29:17.866Z,10.57
2022-08-20T16:31:56.340Z,6.45
2022-08-20T16:34:42.421Z,12.52
2022-08-20T16:37:59.508Z,6.05
2022-08-20T16:40:39.120Z,8.88
2022-08-20T16:43:12.389Z,9.15
2022-08-20T16:45:59.994Z,6.35
2022-08-20T16:48:57.842Z,9.27
2022-08-20T16:51:51.979Z,5.70
2022-08-20T16:54:28.346Z,12.05
2022-08-20T16:57:06.411Z,11.93
2022-08-20T16:59:53.335Z,9.10
2022-08-20T17:02:21.471Z,9.30
2022-08-20T17:04:59.326Z,6.68
2022-08-20T17:07:53.329Z,9.20
2022-08-20T17:10:40.532Z,6.53
2022-08-20T17:13:13.785Z,6.43
2022-08-20T17:15:57.049Z,5.10
2022-08-20T17:18:37.010Z,5.95
2022-08-20T17:21:26.086Z,7.85
2022-08-20T17:24:04.791Z,6.20
2022-08-20T17:26:53.988Z,6.80
2022-08-20T17:29:29.347Z,7.32
2022-08-20T17:32:10.126Z,8.65
2022-08-20T17:34:51.983Z,8.15
2022-08-20T17:37:40.657Z,13.25
2022-08-20T17:40:29.277Z,7.00
2022-08-20T17:43:04.011Z,6.60
2022-08-20T17:45:46.557Z,7.55
2022-08-20T17:48:28.870Z,6.28
2022-08-20T17:50:58.134Z,4.53
2022-08-20T17:53:36.836Z,3.80
2022-08-20T17:56:31.552Z,8.93
2022-08-20T18:00:02.694Z,7.35
2022-08-20T18:02:33.958Z,6.10
2022-08-20T18:05:02.760Z,6.72
2022-08-20T18:07:56.243Z,7.30
2022-08-20T18:10:27.131Z,5.28
2022-08-20T18:13:19.752Z,5.53
2022-08-20T18:15:57.017Z,6.75
2022-08-20T18:19:36.294Z,8.20
2022-08-20T18:22:20.525Z,5.45
2022-08-20T18:25:37.075Z,6.63
2022-08-20T18:28:27.503Z,7.18
2022-08-20T18:31:08.901Z,6.80
2022-08-20T18:33:43.654Z,10.73
2022-08-20T18:36:27.109Z,9.02
2022-08-20T18:39:31.268Z,5.00
2022-08-20T18:42:09.683Z,7.93
2022-08-20T18:44:47.790Z,4.88
2022-08-20T18:47:33.021Z,5.10
2022-08-20T18:50:40.333Z,10.02
2022-08-20T18:53:13.175Z,6.53
2022-08-20T18:55:47.705Z,4.63
2022-08-20T18:58:46.958Z,6.75
2022-08-20T19:01:15.772Z,4.68
2022-08-20T19:03:53.262Z,5.25
2022-08-20T19:07:18.283Z,5.57
2022-08-20T19:10:27.962Z,6.85
2022-08-20T19:13:41.531Z,5.30
2022-08-20T19:16:20.188Z,9.65
2022-08-20T19:18:54.875Z,4.93
2022-08-20T19:21:35.698Z,5.32
2022-08-20T19:24:07.362Z,6.47
2022-08-20T19:26:47.672Z,8.43
2022-08-20T19:29:31.006Z,4.57
2022-08-20T19:32:07.254Z,8.52
2022-08-20T19:34:36.399Z,6.45
2022-08-20T19:37:35.824Z,5.47
2022-08-20T19:40:21.586Z,5.10
2022-08-20T19:42:49.834Z,5.93
2022-08-20T19:45:52.027Z,7.63
2022-08-20T19:48:50.503Z,6.47
2022-08-20T19:51:53.994Z,7.03
2022-08-20T19:54:26.450Z,4.63
2022-08-20T19:57:05.240Z,6.32
2022-08-20T19:59:32.744Z,7.13
2022-08-20T20:02:04.913Z,5.63
2022-08-20T20:04:55.625Z,7.80
2022-08-20T20:07:46.722Z,7.47
2022-08-20T20:10:36.559Z,18.25
2022-08-20T20:13:13.817Z,7.65
2022-08-20T20:15:43.619Z,8.65
2022-08-20T20:18:12.081Z,7.70
2022-08-20T20:20:57.950Z,8.55
2022-08-20T20:23:41.631Z,7.13
2022-08-20T20:26:20.251Z,7.65
2022-08-20T20:29:03.674Z,6.82
2022-08-20T20:31:45.127Z,6.60
2022-08-20T20:34:15.564Z,8.05
2022-08-20T20:36:47.703Z,9.40
2022-08-20T20:39:41.177Z,7.95
2022-08-20T20:42:13.906Z,5.57
2022-08-20T20:44:44.899Z,7.35
2022-08-20T20:47:33.370Z,7.47
2022-08-20T20:50:12.391Z,7.95
2022-08-20T20:52:54.543Z,8.88
2022-08-20T20:55:37.911Z,6.20
2022-08-20T20:58:05.681Z,6.55
2022-08-20T21:00:34.957Z,11.13
2022-08-20T21:03:02.668Z,7.43
2022-08-20T21:05:33.205Z,5.63
2022-08-20T21:08:08.094Z,5.93
2022-08-20T21:10:39.604Z,9.23
2022-08-20T21:13:10.582Z,5.53
2022-08-20T21:15:39.856Z,6.03
2022-08-20T21:18:09.312Z,6.15
2022-08-20T21:20:37.179Z,7.90
2022-08-20T21:23:05.195Z,6.53
2022-08-20T21:25:35.219Z,9.80
2022-08-20T21:28:03.792Z,7.82
2022-08-20T21:30:33.716Z,8.57
2022-08-20T21:33:01.181Z,6.90
2022-08-20T21:35:30.130Z,8.48
2022-08-20T21:37:57.460Z,8.20
2022-08-20T21:40:28.450Z,9.98
2022-08-20T21:42:56.344Z,6.70
2022-08-20T21:45:23.694Z,9.27
2022-08-20T21:47:57.205Z,6.80
2022-08-20T21:50:25.753Z,8.98
2022-08-20T21:52:59.149Z,8.38
2022-08-20T21:55:37.510Z,8.48
2022-08-20T21:58:08.003Z,12.93
2022-08-20T22:01:04.190Z,9.07
2022-08-20T22:03:38.669Z,12.48
2022-08-20T22:08:39.776Z,9.77
2022-08-20T22:11:10.681Z,10.15
2022-08-20T22:13:39.764Z,10.63
2022-08-20T22:16:19.569Z,10.27
2022-08-20T22:18:49.414Z,13.80
2022-08-20T22:21:31.692Z,10.35
2022-08-20T22:24:05.359Z,10.57
2022-08-20T22:26:36.728Z,10.00
2022-08-20T22:29:06.792Z,11.82
2022-08-20T22:31:40.369Z,11.05
2022-08-20T22:34:09.889Z,12.38
2022-08-20T22:36:37.433Z,8.80
2022-08-20T22:39:05.558Z,9.25
2022-08-20T22:41:33.172Z,9.07
2022-08-20T22:44:00.685Z,12.32
2022-08-20T22:46:36.662Z,11.35
2022-08-20T22:49:09.286Z,11.27
2022-08-20T22:51:39.082Z,10.25
2022-08-20T22:54:13.794Z,16.38
2022-08-20T22:56:41.079Z,10.70
2022-08-20T22:59:08.608Z,11.38
2022-08-20T23:01:37.045Z,10.70
2022-08-20T23:04:17.360Z,9.48
2022-08-20T23:06:44.905Z,10.15
2022-08-20T23:09:13.066Z,11.05
2022-08-20T23:11:41.190Z,13.48
2022-08-20T23:14:08.598Z,9.55
2022-08-20T23:16:43.708Z,9.40
2022-08-20T23:19:23.062Z,10.57
2022-08-20T23:21:51.730Z,9.00
2022-08-20T23:24:20.123Z,9.13
2022-08-20T23:26:52.525Z,10.75
2022-08-20T23:29:25.414Z,16.05
2022-08-20T23:31:56.672Z,11.10
2022-08-20T23:34:25.960Z,12.30
2022-08-20T23:36:55.930Z,15.95
2022-08-20T23:39:25.508Z,11.65
2022-08-20T23:41:53.513Z,12.27
2022-08-20T23:44:26.101Z,12.60
2022-08-20T23:47:02.508Z,12.70
2022-08-20T23:49:32.148Z,14.23
2022-08-20T23:52:00.741Z,12.23
2022-08-20T23:54:33.485Z,11.73
2022-08-20T23:57:00.924Z,11.75
2022-08-20T23:59:28.308Z,12.63
